sensor_id;sensor_type;location;lat;lon;timestamp;P1;durP1;ratioP1;P2;durP2;ratioP2
25079;SDS011;13071;48.868;9.996;2023-11-21T00:01:02;3.03;;;0.90;;
25079;SDS011;13071;48.868;9.996;2023-11-21T00:03:29;2.08;;;1.23;;
25079;SDS011;13071;48.868;9.996;2023-11-21T00:05:57;0.93;;;0.80;;
25079;SDS011;13071;48.868;9.996;2023-11-21T00:08:24;1.23;;;0.90;;
25079;SDS011;13071;48.868;9.996;2023-11-21T00:10:50;1.67;;;0.95;;
25079;SDS011;13071;48.868;9.996;2023-11-21T00:13:17;5.07;;;1.10;;
25079;SDS011;13071;48.868;9.996;2023-11-21T00:15:44;4.07;;;0.90;;
25079;SDS011;13071;48.868;9.996;2023-11-21T00:18:10;3.53;;;1.20;;
25079;SDS011;13071;48.868;9.996;2023-11-21T00:20:37;2.92;;;0.88;;
25079;SDS011;13071;48.868;9.996;2023-11-21T00:23:05;0.95;;;0.90;;
25079;SDS011;13071;48.868;9.996;2023-11-21T00:25:32;1.98;;;0.75;;
25079;SDS011;13071;48.868;9.996;2023-11-21T00:27:58;5.90;;;0.88;;
25079;SDS011;13071;48.868;9.996;2023-11-21T00:30:26;3.95;;;0.88;;
25079;SDS011;13071;48.868;9.996;2023-11-21T00:32:53;2.30;;;0.70;;
25079;SDS011;13071;48.868;9.996;2023-11-21T00:35:20;3.30;;;0.70;;
25079;SDS011;13071;48.868;9.996;2023-11-21T00:37:47;1.38;;;0.73;;
25079;SDS011;13071;48.868;9.996;2023-11-21T00:40:16;3.92;;;0.88;;
25079;SDS011;13071;48.868;9.996;2023-11-21T00:42:44;1.45;;;1.00;;
25079;SDS011;13071;48.868;9.996;2023-11-21T00:45:11;1.17;;;0.77;;
25079;SDS011;13071;48.868;9.996;2023-11-21T00:47:38;1.58;;;0.82;;
25079;SDS011;13071;48.868;9.996;2023-11-21T00:50:05;3.55;;;0.95;;
25079;SDS011;13071;48.868;9.996;2023-11-21T00:52:32;1.05;;;0.75;;
25079;SDS011;13071;48.868;9.996;2023-11-21T00:54:59;3.92;;;0.77;;
25079;SDS011;13071;48.868;9.996;2023-11-21T00:57:28;0.90;;;0.73;;
25079;SDS011;13071;48.868;9.996;2023-11-21T00:59:54;1.75;;;1.10;;
25079;SDS011;13071;48.868;9.996;2023-11-21T01:02:21;2.17;;;0.70;;
25079;SDS011;13071;48.868;9.996;2023-11-21T01:04:48;2.90;;;0.80;;
25079;SDS011;13071;48.868;9.996;2023-11-21T01:07:14;2.35;;;0.90;;
25079;SDS011;13071;48.868;9.996;2023-11-21T01:09:41;1.17;;;0.70;;
25079;SDS011;13071;48.868;9.996;2023-11-21T01:12:09;0.73;;;0.73;;
25079;SDS011;13071;48.868;9.996;2023-11-21T01:14:38;2.15;;;0.75;;
25079;SDS011;13071;48.868;9.996;2023-11-21T01:17:04;3.70;;;0.80;;
25079;SDS011;13071;48.868;9.996;2023-11-21T01:19:31;2.38;;;0.80;;
25079;SDS011;13071;48.868;9.996;2023-11-21T01:21:57;1.48;;;0.80;;
25079;SDS011;13071;48.868;9.996;2023-11-21T01:24:24;5.20;;;1.10;;
25079;SDS011;13071;48.868;9.996;2023-11-21T01:26:51;6.07;;;1.08;;
25079;SDS011;13071;48.868;9.996;2023-11-21T01:29:17;1.60;;;0.80;;
25079;SDS011;13071;48.868;9.996;2023-11-21T01:31:46;1.63;;;1.02;;
25079;SDS011;13071;48.868;9.996;2023-11-21T01:34:13;1.25;;;0.90;;
25079;SDS011;13071;48.868;9.996;2023-11-21T01:36:39;0.82;;;0.82;;
25079;SDS011;13071;48.868;9.996;2023-11-21T01:39:06;1.55;;;0.90;;
25079;SDS011;13071;48.868;9.996;2023-11-21T01:41:36;1.00;;;0.95;;
25079;SDS011;13071;48.868;9.996;2023-11-21T01:44:03;1.42;;;0.80;;
25079;SDS011;13071;48.868;9.996;2023-11-21T01:46:32;3.83;;;1.40;;
25079;SDS011;13071;48.868;9.996;2023-11-21T01:49:01;3.50;;;0.85;;
25079;SDS011;13071;48.868;9.996;2023-11-21T01:51:28;3.20;;;1.10;;
25079;SDS011;13071;48.868;9.996;2023-11-21T01:53:56;1.45;;;0.90;;
25079;SDS011;13071;48.868;9.996;2023-11-21T01:56:24;1.50;;;1.00;;
25079;SDS011;13071;48.868;9.996;2023-11-21T01:58:51;5.63;;;1.05;;
25079;SDS011;13071;48.868;9.996;2023-11-21T02:01:19;3.80;;;1.20;;
25079;SDS011;13071;48.868;9.996;2023-11-21T02:03:45;2.50;;;1.23;;
25079;SDS011;13071;48.868;9.996;2023-11-21T02:06:13;4.65;;;1.20;;
25079;SDS011;13071;48.868;9.996;2023-11-21T02:08:40;1.40;;;0.85;;
25079;SDS011;13071;48.868;9.996;2023-11-21T02:11:09;4.88;;;1.27;;
25079;SDS011;13071;48.868;9.996;2023-11-21T02:13:38;0.98;;;0.98;;
25079;SDS011;13071;48.868;9.996;2023-11-21T02:16:08;3.58;;;1.15;;
25079;SDS011;13071;48.868;9.996;2023-11-21T02:18:35;0.98;;;0.95;;
25079;SDS011;13071;48.868;9.996;2023-11-21T02:21:04;3.80;;;0.98;;
25079;SDS011;13071;48.868;9.996;2023-11-21T02:23:32;3.03;;;1.30;;
25079;SDS011;13071;48.868;9.996;2023-11-21T02:25:59;4.80;;;1.00;;
25079;SDS011;13071;48.868;9.996;2023-11-21T02:28:29;2.85;;;1.00;;
25079;SDS011;13071;48.868;9.996;2023-11-21T02:30:56;4.57;;;1.27;;
25079;SDS011;13071;48.868;9.996;2023-11-21T02:33:24;2.35;;;1.27;;
25079;SDS011;13071;48.868;9.996;2023-11-21T02:35:50;1.75;;;1.20;;
25079;SDS011;13071;48.868;9.996;2023-11-21T02:38:20;5.18;;;1.33;;
25079;SDS011;13071;48.868;9.996;2023-11-21T02:40:48;0.93;;;0.93;;
25079;SDS011;13071;48.868;9.996;2023-11-21T02:43:15;1.58;;;1.02;;
25079;SDS011;13071;48.868;9.996;2023-11-21T02:45:41;5.75;;;1.10;;
25079;SDS011;13071;48.868;9.996;2023-11-21T02:48:08;3.05;;;1.20;;
25079;SDS011;13071;48.868;9.996;2023-11-21T02:50:34;3.47;;;1.10;;
25079;SDS011;13071;48.868;9.996;2023-11-21T02:53:02;1.60;;;1.23;;
25079;SDS011;13071;48.868;9.996;2023-11-21T02:55:30;1.25;;;0.90;;
25079;SDS011;13071;48.868;9.996;2023-11-21T02:58:01;4.07;;;1.42;;
25079;SDS011;13071;48.868;9.996;2023-11-21T03:00:28;1.95;;;1.50;;
25079;SDS011;13071;48.868;9.996;2023-11-21T03:02:55;2.00;;;1.30;;
25079;SDS011;13071;48.868;9.996;2023-11-21T03:05:22;4.38;;;1.23;;
25079;SDS011;13071;48.868;9.996;2023-11-21T03:07:49;3.58;;;1.15;;
25079;SDS011;13071;48.868;9.996;2023-11-21T03:10:15;1.27;;;1.00;;
25079;SDS011;13071;48.868;9.996;2023-11-21T03:12:42;3.50;;;1.70;;
25079;SDS011;13071;48.868;9.996;2023-11-21T03:15:11;4.88;;;1.08;;
25079;SDS011;13071;48.868;9.996;2023-11-21T03:17:37;1.80;;;1.10;;
25079;SDS011;13071;48.868;9.996;2023-11-21T03:20:05;4.22;;;1.10;;
25079;SDS011;13071;48.868;9.996;2023-11-21T03:22:35;1.80;;;1.10;;
25079;SDS011;13071;48.868;9.996;2023-11-21T03:25:02;1.55;;;1.20;;
25079;SDS011;13071;48.868;9.996;2023-11-21T03:27:29;1.25;;;1.15;;
25079;SDS011;13071;48.868;9.996;2023-11-21T03:29:56;1.52;;;1.40;;
25079;SDS011;13071;48.868;9.996;2023-11-21T03:32:24;3.13;;;1.15;;
25079;SDS011;13071;48.868;9.996;2023-11-21T03:34:54;1.00;;;1.00;;
25079;SDS011;13071;48.868;9.996;2023-11-21T03:37:22;1.30;;;1.20;;
25079;SDS011;13071;48.868;9.996;2023-11-21T03:39:49;4.25;;;1.40;;
25079;SDS011;13071;48.868;9.996;2023-11-21T03:42:16;1.35;;;1.25;;
25079;SDS011;13071;48.868;9.996;2023-11-21T03:44:43;3.78;;;1.50;;
25079;SDS011;13071;48.868;9.996;2023-11-21T03:47:09;2.28;;;1.52;;
25079;SDS011;13071;48.868;9.996;2023-11-21T03:49:37;1.83;;;1.20;;
25079;SDS011;13071;48.868;9.996;2023-11-21T03:52:04;1.50;;;0.98;;
25079;SDS011;13071;48.868;9.996;2023-11-21T03:54:32;1.45;;;1.30;;
25079;SDS011;13071;48.868;9.996;2023-11-21T03:56:59;3.83;;;1.42;;
25079;SDS011;13071;48.868;9.996;2023-11-21T03:59:25;4.68;;;1.23;;
25079;SDS011;13071;48.868;9.996;2023-11-21T04:01:53;2.53;;;1.30;;
25079;SDS011;13071;48.868;9.996;2023-11-21T04:04:21;2.70;;;1.25;;
25079;SDS011;13071;48.868;9.996;2023-11-21T04:06:49;5.10;;;1.60;;
25079;SDS011;13071;48.868;9.996;2023-11-21T04:09:16;1.55;;;1.20;;
25079;SDS011;13071;48.868;9.996;2023-11-21T04:11:43;1.58;;;1.23;;
25079;SDS011;13071;48.868;9.996;2023-11-21T04:14:10;5.15;;;1.58;;
25079;SDS011;13071;48.868;9.996;2023-11-21T04:16:37;3.75;;;1.42;;
25079;SDS011;13071;48.868;9.996;2023-11-21T04:19:03;4.55;;;1.15;;
25079;SDS011;13071;48.868;9.996;2023-11-21T04:21:30;4.93;;;1.45;;
25079;SDS011;13071;48.868;9.996;2023-11-21T04:23:59;1.92;;;1.10;;
25079;SDS011;13071;48.868;9.996;2023-11-21T04:26:26;4.68;;;1.60;;
25079;SDS011;13071;48.868;9.996;2023-11-21T04:28:52;0.93;;;0.90;;
25079;SDS011;13071;48.868;9.996;2023-11-21T04:31:19;2.45;;;1.30;;
25079;SDS011;13071;48.868;9.996;2023-11-21T04:33:46;1.30;;;1.20;;
25079;SDS011;13071;48.868;9.996;2023-11-21T04:36:12;2.40;;;1.17;;
25079;SDS011;13071;48.868;9.996;2023-11-21T04:38:39;4.30;;;1.20;;
25079;SDS011;13071;48.868;9.996;2023-11-21T04:41:07;1.08;;;1.02;;
25079;SDS011;13071;48.868;9.996;2023-11-21T04:43:34;2.30;;;1.10;;
25079;SDS011;13071;48.868;9.996;2023-11-21T04:46:01;1.33;;;1.23;;
25079;SDS011;13071;48.868;9.996;2023-11-21T04:48:28;1.15;;;1.05;;
25079;SDS011;13071;48.868;9.996;2023-11-21T04:50:54;1.85;;;0.90;;
25079;SDS011;13071;48.868;9.996;2023-11-21T04:53:21;2.35;;;1.27;;
25079;SDS011;13071;48.868;9.996;2023-11-21T04:55:48;1.40;;;1.10;;
25079;SDS011;13071;48.868;9.996;2023-11-21T04:58:16;2.13;;;1.10;;
25079;SDS011;13071;48.868;9.996;2023-11-21T05:00:42;1.10;;;1.02;;
25079;SDS011;13071;48.868;9.996;2023-11-21T05:03:09;4.15;;;1.30;;
25079;SDS011;13071;48.868;9.996;2023-11-21T05:05:35;3.08;;;1.50;;
25079;SDS011;13071;48.868;9.996;2023-11-21T05:08:02;4.38;;;1.38;;
25079;SDS011;13071;48.868;9.996;2023-11-21T05:10:30;2.53;;;1.45;;
25079;SDS011;13071;48.868;9.996;2023-11-21T05:12:56;1.83;;;1.60;;
25079;SDS011;13071;48.868;9.996;2023-11-21T05:15:24;2.45;;;1.63;;
25079;SDS011;13071;48.868;9.996;2023-11-21T05:17:52;4.68;;;1.63;;
25079;SDS011;13071;48.868;9.996;2023-11-21T05:20:20;2.17;;;1.75;;
25079;SDS011;13071;48.868;9.996;2023-11-21T05:22:47;3.22;;;1.60;;
25079;SDS011;13071;48.868;9.996;2023-11-21T05:25:14;1.50;;;1.40;;
25079;SDS011;13071;48.868;9.996;2023-11-21T05:27:43;2.38;;;1.65;;
25079;SDS011;13071;48.868;9.996;2023-11-21T05:30:10;2.22;;;2.00;;
25079;SDS011;13071;48.868;9.996;2023-11-21T05:32:39;3.28;;;1.83;;
25079;SDS011;13071;48.868;9.996;2023-11-21T05:35:07;3.50;;;1.70;;
25079;SDS011;13071;48.868;9.996;2023-11-21T05:37:39;3.20;;;1.85;;
25079;SDS011;13071;48.868;9.996;2023-11-21T05:40:06;3.78;;;1.67;;
25079;SDS011;13071;48.868;9.996;2023-11-21T05:42:33;3.90;;;2.17;;
25079;SDS011;13071;48.868;9.996;2023-11-21T05:45:01;2.10;;;1.77;;
25079;SDS011;13071;48.868;9.996;2023-11-21T05:47:36;2.15;;;1.92;;
25079;SDS011;13071;48.868;9.996;2023-11-21T05:50:06;3.70;;;2.25;;
25079;SDS011;13071;48.868;9.996;2023-11-21T05:52:37;3.75;;;1.80;;
25079;SDS011;13071;48.868;9.996;2023-11-21T05:55:04;2.65;;;2.03;;
25079;SDS011;13071;48.868;9.996;2023-11-21T05:57:32;1.98;;;1.75;;
25079;SDS011;13071;48.868;9.996;2023-11-21T05:59:59;1.63;;;1.52;;
25079;SDS011;13071;48.868;9.996;2023-11-21T06:02:28;3.95;;;1.65;;
25079;SDS011;13071;48.868;9.996;2023-11-21T06:04:55;2.03;;;1.83;;
25079;SDS011;13071;48.868;9.996;2023-11-21T06:07:23;2.47;;;1.60;;
25079;SDS011;13071;48.868;9.996;2023-11-21T06:09:50;2.85;;;1.92;;
25079;SDS011;13071;48.868;9.996;2023-11-21T06:12:16;1.98;;;1.63;;
25079;SDS011;13071;48.868;9.996;2023-11-21T06:14:45;3.83;;;1.85;;
25079;SDS011;13071;48.868;9.996;2023-11-21T06:17:13;2.33;;;1.70;;
25079;SDS011;13071;48.868;9.996;2023-11-21T06:19:39;3.40;;;1.95;;
25079;SDS011;13071;48.868;9.996;2023-11-21T06:22:06;2.38;;;1.70;;
25079;SDS011;13071;48.868;9.996;2023-11-21T06:24:34;2.53;;;1.40;;
25079;SDS011;13071;48.868;9.996;2023-11-21T06:27:03;3.15;;;1.25;;
25079;SDS011;13071;48.868;9.996;2023-11-21T06:29:29;1.75;;;1.63;;
25079;SDS011;13071;48.868;9.996;2023-11-21T06:31:57;3.60;;;1.20;;
25079;SDS011;13071;48.868;9.996;2023-11-21T06:34:23;1.10;;;1.00;;
25079;SDS011;13071;48.868;9.996;2023-11-21T06:36:50;2.35;;;1.17;;
25079;SDS011;13071;48.868;9.996;2023-11-21T06:39:17;2.00;;;1.20;;
25079;SDS011;13071;48.868;9.996;2023-11-21T06:41:49;2.28;;;1.58;;
25079;SDS011;13071;48.868;9.996;2023-11-21T06:44:15;1.50;;;1.40;;
25079;SDS011;13071;48.868;9.996;2023-11-21T06:46:42;3.67;;;1.30;;
25079;SDS011;13071;48.868;9.996;2023-11-21T06:49:08;1.83;;;1.63;;
25079;SDS011;13071;48.868;9.996;2023-11-21T06:51:36;2.97;;;1.33;;
25079;SDS011;13071;48.868;9.996;2023-11-21T06:54:02;2.47;;;1.80;;
25079;SDS011;13071;48.868;9.996;2023-11-21T06:56:29;2.05;;;1.85;;
25079;SDS011;13071;48.868;9.996;2023-11-21T06:58:57;1.95;;;1.42;;
25079;SDS011;13071;48.868;9.996;2023-11-21T07:01:24;3.53;;;1.80;;
25079;SDS011;13071;48.868;9.996;2023-11-21T07:03:50;2.75;;;2.17;;
25079;SDS011;13071;48.868;9.996;2023-11-21T07:06:17;3.80;;;2.00;;
25079;SDS011;13071;48.868;9.996;2023-11-21T07:08:44;3.72;;;1.77;;
25079;SDS011;13071;48.868;9.996;2023-11-21T07:11:10;2.95;;;1.95;;
25079;SDS011;13071;48.868;9.996;2023-11-21T07:13:37;2.35;;;1.90;;
25079;SDS011;13071;48.868;9.996;2023-11-21T07:16:05;2.40;;;1.92;;
25079;SDS011;13071;48.868;9.996;2023-11-21T07:18:32;1.70;;;1.60;;
25079;SDS011;13071;48.868;9.996;2023-11-21T07:20:59;1.88;;;1.60;;
25079;SDS011;13071;48.868;9.996;2023-11-21T07:23:25;2.67;;;1.73;;
25079;SDS011;13071;48.868;9.996;2023-11-21T07:25:52;2.78;;;1.60;;
25079;SDS011;13071;48.868;9.996;2023-11-21T07:28:18;3.08;;;1.70;;
25079;SDS011;13071;48.868;9.996;2023-11-21T07:30:45;1.73;;;1.33;;
25079;SDS011;13071;48.868;9.996;2023-11-21T07:33:13;1.40;;;1.30;;
25079;SDS011;13071;48.868;9.996;2023-11-21T07:35:40;1.30;;;1.20;;
25079;SDS011;13071;48.868;9.996;2023-11-21T07:38:06;1.25;;;1.15;;
25079;SDS011;13071;48.868;9.996;2023-11-21T07:40:33;2.10;;;1.38;;
25079;SDS011;13071;48.868;9.996;2023-11-21T07:43:00;3.75;;;1.42;;
25079;SDS011;13071;48.868;9.996;2023-11-21T07:45:27;1.42;;;1.33;;
25079;SDS011;13071;48.868;9.996;2023-11-21T07:47:53;2.05;;;1.42;;
25079;SDS011;13071;48.868;9.996;2023-11-21T07:50:21;2.33;;;1.52;;
25079;SDS011;13071;48.868;9.996;2023-11-21T07:52:48;1.92;;;1.70;;
25079;SDS011;13071;48.868;9.996;2023-11-21T07:55:15;2.15;;;1.70;;
25079;SDS011;13071;48.868;9.996;2023-11-21T07:57:42;4.53;;;1.77;;
25079;SDS011;13071;48.868;9.996;2023-11-21T08:00:09;6.32;;;2.00;;
25079;SDS011;13071;48.868;9.996;2023-11-21T08:02:37;2.50;;;1.60;;
25079;SDS011;13071;48.868;9.996;2023-11-21T08:05:04;2.60;;;1.50;;
25079;SDS011;13071;48.868;9.996;2023-11-21T08:07:33;2.70;;;1.55;;
25079;SDS011;13071;48.868;9.996;2023-11-21T08:10:00;1.98;;;1.77;;
25079;SDS011;13071;48.868;9.996;2023-11-21T08:12:26;1.50;;;1.38;;
25079;SDS011;13071;48.868;9.996;2023-11-21T08:14:53;3.33;;;1.60;;
25079;SDS011;13071;48.868;9.996;2023-11-21T08:17:20;2.13;;;1.55;;
25079;SDS011;13071;48.868;9.996;2023-11-21T08:19:46;2.78;;;1.77;;
25079;SDS011;13071;48.868;9.996;2023-11-21T08:22:14;1.95;;;1.60;;
25079;SDS011;13071;48.868;9.996;2023-11-21T08:24:44;2.30;;;1.65;;
25079;SDS011;13071;48.868;9.996;2023-11-21T08:27:11;2.00;;;1.52;;
25079;SDS011;13071;48.868;9.996;2023-11-21T08:29:41;3.83;;;1.70;;
25079;SDS011;13071;48.868;9.996;2023-11-21T08:32:08;7.40;;;1.92;;
25079;SDS011;13071;48.868;9.996;2023-11-21T08:34:34;2.17;;;1.70;;
25079;SDS011;13071;48.868;9.996;2023-11-21T08:37:01;3.45;;;1.73;;
25079;SDS011;13071;48.868;9.996;2023-11-21T08:39:28;1.80;;;1.70;;
25079;SDS011;13071;48.868;9.996;2023-11-21T08:41:56;1.52;;;1.42;;
25079;SDS011;13071;48.868;9.996;2023-11-21T08:44:23;3.00;;;1.65;;
25079;SDS011;13071;48.868;9.996;2023-11-21T08:46:50;3.47;;;1.67;;
25079;SDS011;13071;48.868;9.996;2023-11-21T08:49:16;2.15;;;1.80;;
25079;SDS011;13071;48.868;9.996;2023-11-21T08:51:44;1.83;;;1.55;;
25079;SDS011;13071;48.868;9.996;2023-11-21T08:54:10;2.40;;;2.10;;
25079;SDS011;13071;48.868;9.996;2023-11-21T08:56:37;2.80;;;2.10;;
25079;SDS011;13071;48.868;9.996;2023-11-21T08:59:05;2.40;;;1.70;;
25079;SDS011;13071;48.868;9.996;2023-11-21T09:01:33;2.05;;;1.40;;
25079;SDS011;13071;48.868;9.996;2023-11-21T09:03:59;2.70;;;1.70;;
25079;SDS011;13071;48.868;9.996;2023-11-21T09:06:27;2.33;;;1.42;;
25079;SDS011;13071;48.868;9.996;2023-11-21T09:08:54;2.08;;;1.30;;
25079;SDS011;13071;48.868;9.996;2023-11-21T09:11:20;1.42;;;1.33;;
25079;SDS011;13071;48.868;9.996;2023-11-21T09:13:47;1.55;;;1.30;;
25079;SDS011;13071;48.868;9.996;2023-11-21T09:16:15;1.77;;;1.42;;
25079;SDS011;13071;48.868;9.996;2023-11-21T09:18:42;1.90;;;1.30;;
25079;SDS011;13071;48.868;9.996;2023-11-21T09:21:08;1.67;;;1.45;;
25079;SDS011;13071;48.868;9.996;2023-11-21T09:23:35;1.92;;;1.50;;
25079;SDS011;13071;48.868;9.996;2023-11-21T09:26:02;2.00;;;1.27;;
25079;SDS011;13071;48.868;9.996;2023-11-21T09:28:28;1.33;;;1.23;;
25079;SDS011;13071;48.868;9.996;2023-11-21T09:30:55;3.20;;;1.50;;
25079;SDS011;13071;48.868;9.996;2023-11-21T09:33:23;1.77;;;1.50;;
25079;SDS011;13071;48.868;9.996;2023-11-21T09:35:50;1.20;;;1.20;;
25079;SDS011;13071;48.868;9.996;2023-11-21T09:38:17;1.85;;;1.48;;
25079;SDS011;13071;48.868;9.996;2023-11-21T09:40:44;1.40;;;1.30;;
25079;SDS011;13071;48.868;9.996;2023-11-21T09:43:15;3.53;;;1.50;;
25079;SDS011;13071;48.868;9.996;2023-11-21T09:45:45;2.00;;;1.40;;
25079;SDS011;13071;48.868;9.996;2023-11-21T09:48:13;6.60;;;4.85;;
25079;SDS011;13071;48.868;9.996;2023-11-21T09:50:43;1.65;;;1.48;;
25079;SDS011;13071;48.868;9.996;2023-11-21T09:53:12;2.97;;;1.88;;
25079;SDS011;13071;48.868;9.996;2023-11-21T09:55:44;1.38;;;1.33;;
25079;SDS011;13071;48.868;9.996;2023-11-21T09:58:13;1.85;;;1.70;;
25079;SDS011;13071;48.868;9.996;2023-11-21T10:00:40;1.45;;;1.35;;
25079;SDS011;13071;48.868;9.996;2023-11-21T10:03:08;1.60;;;1.50;;
25079;SDS011;13071;48.868;9.996;2023-11-21T10:05:35;2.00;;;1.83;;
25079;SDS011;13071;48.868;9.996;2023-11-21T10:08:03;3.38;;;1.63;;
25079;SDS011;13071;48.868;9.996;2023-11-21T10:10:33;4.45;;;1.60;;
25079;SDS011;13071;48.868;9.996;2023-11-21T10:13:02;2.00;;;1.48;;
25079;SDS011;13071;48.868;9.996;2023-11-21T10:15:31;1.92;;;1.80;;
25079;SDS011;13071;48.868;9.996;2023-11-21T10:18:00;2.22;;;1.58;;
25079;SDS011;13071;48.868;9.996;2023-11-21T10:20:28;3.88;;;1.70;;
25079;SDS011;13071;48.868;9.996;2023-11-21T10:22:55;1.73;;;1.63;;
25079;SDS011;13071;48.868;9.996;2023-11-21T10:25:24;1.95;;;1.42;;
25079;SDS011;13071;48.868;9.996;2023-11-21T10:27:56;2.83;;;1.77;;
25079;SDS011;13071;48.868;9.996;2023-11-21T10:30:27;2.80;;;1.85;;
25079;SDS011;13071;48.868;9.996;2023-11-21T10:32:58;3.90;;;1.73;;
25079;SDS011;13071;48.868;9.996;2023-11-21T10:35:29;2.03;;;1.80;;
25079;SDS011;13071;48.868;9.996;2023-11-21T10:38:05;2.67;;;1.88;;
25079;SDS011;13071;48.868;9.996;2023-11-21T10:40:34;3.35;;;2.33;;
25079;SDS011;13071;48.868;9.996;2023-11-21T10:43:05;1.80;;;1.70;;
25079;SDS011;13071;48.868;9.996;2023-11-21T10:45:34;1.60;;;1.50;;
25079;SDS011;13071;48.868;9.996;2023-11-21T10:48:04;3.30;;;1.88;;
25079;SDS011;13071;48.868;9.996;2023-11-21T10:50:32;1.75;;;1.65;;
25079;SDS011;13071;48.868;9.996;2023-11-21T10:53:00;1.55;;;1.45;;
25079;SDS011;13071;48.868;9.996;2023-11-21T10:55:29;1.70;;;1.60;;
25079;SDS011;13071;48.868;9.996;2023-11-21T10:57:58;2.20;;;2.00;;
25079;SDS011;13071;48.868;9.996;2023-11-21T11:00:27;2.28;;;1.73;;
25079;SDS011;13071;48.868;9.996;2023-11-21T11:02:54;1.83;;;1.50;;
25079;SDS011;13071;48.868;9.996;2023-11-21T11:05:22;3.85;;;2.35;;
25079;SDS011;13071;48.868;9.996;2023-11-21T11:07:51;3.40;;;2.42;;
25079;SDS011;13071;48.868;9.996;2023-11-21T11:10:25;2.97;;;2.45;;
25079;SDS011;13071;48.868;9.996;2023-11-21T11:12:53;6.22;;;2.20;;
25079;SDS011;13071;48.868;9.996;2023-11-21T11:15:21;2.58;;;2.17;;
25079;SDS011;13071;48.868;9.996;2023-11-21T11:17:49;1.92;;;1.83;;
25079;SDS011;13071;48.868;9.996;2023-11-21T11:20:16;8.45;;;3.13;;
25079;SDS011;13071;48.868;9.996;2023-11-21T11:22:48;2.08;;;1.88;;
25079;SDS011;13071;48.868;9.996;2023-11-21T11:25:30;4.93;;;3.55;;
25079;SDS011;13071;48.868;9.996;2023-11-21T11:28:10;3.90;;;2.80;;
25079;SDS011;13071;48.868;9.996;2023-11-21T11:30:44;8.95;;;5.10;;
25079;SDS011;13071;48.868;9.996;2023-11-21T11:33:25;3.88;;;2.60;;
25079;SDS011;13071;48.868;9.996;2023-11-21T11:36:02;5.07;;;3.42;;
25079;SDS011;13071;48.868;9.996;2023-11-21T11:38:34;4.22;;;3.10;;
25079;SDS011;13071;48.868;9.996;2023-11-21T11:41:01;13.13;;;6.40;;
25079;SDS011;13071;48.868;9.996;2023-11-21T11:43:30;1.27;;;1.23;;
25079;SDS011;13071;48.868;9.996;2023-11-21T11:45:59;5.72;;;1.70;;
25079;SDS011;13071;48.868;9.996;2023-11-21T11:48:29;2.72;;;2.33;;
25079;SDS011;13071;48.868;9.996;2023-11-21T11:51:03;2.65;;;1.95;;
25079;SDS011;13071;48.868;9.996;2023-11-21T11:53:35;1.15;;;1.10;;
25079;SDS011;13071;48.868;9.996;2023-11-21T11:56:21;1.00;;;1.00;;
25079;SDS011;13071;48.868;9.996;2023-11-21T11:58:50;3.33;;;1.48;;
25079;SDS011;13071;48.868;9.996;2023-11-21T12:01:19;5.18;;;2.22;;
25079;SDS011;13071;48.868;9.996;2023-11-21T12:06:48;0.90;;;0.90;;
25079;SDS011;13071;48.868;9.996;2023-11-21T12:09:17;1.42;;;1.23;;
25079;SDS011;13071;48.868;9.996;2023-11-21T12:11:45;1.50;;;1.40;;
25079;SDS011;13071;48.868;9.996;2023-11-21T12:14:12;5.18;;;1.27;;
25079;SDS011;13071;48.868;9.996;2023-11-21T12:16:41;1.75;;;1.50;;
25079;SDS011;13071;48.868;9.996;2023-11-21T12:19:08;1.25;;;1.15;;
25079;SDS011;13071;48.868;9.996;2023-11-21T12:21:35;1.30;;;1.20;;
25079;SDS011;13071;48.868;9.996;2023-11-21T12:24:03;1.65;;;1.20;;
25079;SDS011;13071;48.868;9.996;2023-11-21T12:26:33;0.93;;;0.90;;
25079;SDS011;13071;48.868;9.996;2023-11-21T12:29:00;1.10;;;1.10;;
25079;SDS011;13071;48.868;9.996;2023-11-21T12:31:29;1.27;;;1.17;;
25079;SDS011;13071;48.868;9.996;2023-11-21T12:33:57;0.95;;;0.95;;
25079;SDS011;13071;48.868;9.996;2023-11-21T12:36:24;1.25;;;1.15;;
25079;SDS011;13071;48.868;9.996;2023-11-21T12:38:51;2.78;;;1.27;;
25079;SDS011;13071;48.868;9.996;2023-11-21T12:41:18;0.80;;;0.80;;
25079;SDS011;13071;48.868;9.996;2023-11-21T12:43:46;1.92;;;0.95;;
25079;SDS011;13071;48.868;9.996;2023-11-21T12:46:13;0.90;;;0.90;;
25079;SDS011;13071;48.868;9.996;2023-11-21T12:48:40;1.02;;;1.02;;
25079;SDS011;13071;48.868;9.996;2023-11-21T12:51:10;1.50;;;1.40;;
25079;SDS011;13071;48.868;9.996;2023-11-21T12:53:37;1.48;;;1.38;;
25079;SDS011;13071;48.868;9.996;2023-11-21T12:56:06;1.00;;;0.90;;
25079;SDS011;13071;48.868;9.996;2023-11-21T12:58:34;1.13;;;1.02;;
25079;SDS011;13071;48.868;9.996;2023-11-21T13:01:01;0.80;;;0.80;;
25079;SDS011;13071;48.868;9.996;2023-11-21T13:03:29;0.98;;;0.82;;
25079;SDS011;13071;48.868;9.996;2023-11-21T13:05:56;1.30;;;1.20;;
25079;SDS011;13071;48.868;9.996;2023-11-21T13:08:25;1.48;;;1.38;;
25079;SDS011;13071;48.868;9.996;2023-11-21T13:10:55;4.03;;;1.13;;
25079;SDS011;13071;48.868;9.996;2023-11-21T13:13:22;0.73;;;0.73;;
25079;SDS011;13071;48.868;9.996;2023-11-21T13:15:51;0.70;;;0.70;;
25079;SDS011;13071;48.868;9.996;2023-11-21T13:18:20;0.35;;;0.35;;
25079;SDS011;13071;48.868;9.996;2023-11-21T13:20:48;0.30;;;0.30;;
25079;SDS011;13071;48.868;9.996;2023-11-21T13:23:15;0.43;;;0.32;;
25079;SDS011;13071;48.868;9.996;2023-11-21T13:25:43;0.47;;;0.47;;
25079;SDS011;13071;48.868;9.996;2023-11-21T13:28:12;0.40;;;0.40;;
25079;SDS011;13071;48.868;9.996;2023-11-21T13:30:40;0.40;;;0.40;;
25079;SDS011;13071;48.868;9.996;2023-11-21T13:33:09;0.40;;;0.40;;
25079;SDS011;13071;48.868;9.996;2023-11-21T13:35:42;0.50;;;0.50;;
25079;SDS011;13071;48.868;9.996;2023-11-21T13:38:13;1.27;;;0.75;;
25079;SDS011;13071;48.868;9.996;2023-11-21T13:40:42;0.65;;;0.63;;
25079;SDS011;13071;48.868;9.996;2023-11-21T13:43:17;2.85;;;0.63;;
25079;SDS011;13071;48.868;9.996;2023-11-21T13:45:46;0.60;;;0.60;;
25079;SDS011;13071;48.868;9.996;2023-11-21T13:48:15;0.70;;;0.70;;
25079;SDS011;13071;48.868;9.996;2023-11-21T13:50:50;2.55;;;0.80;;
25079;SDS011;13071;48.868;9.996;2023-11-21T13:53:23;0.75;;;0.57;;
25079;SDS011;13071;48.868;9.996;2023-11-21T13:55:52;0.80;;;0.80;;
25079;SDS011;13071;48.868;9.996;2023-11-21T13:58:22;1.58;;;0.57;;
25079;SDS011;13071;48.868;9.996;2023-11-21T14:01:01;0.60;;;0.60;;
25079;SDS011;13071;48.868;9.996;2023-11-21T14:03:31;1.83;;;0.73;;
25079;SDS011;13071;48.868;9.996;2023-11-21T14:06:05;0.60;;;0.60;;
25079;SDS011;13071;48.868;9.996;2023-11-21T14:08:39;1.77;;;0.90;;
25079;SDS011;13071;48.868;9.996;2023-11-21T14:11:07;0.75;;;0.75;;
25079;SDS011;13071;48.868;9.996;2023-11-21T14:13:36;2.10;;;1.10;;
25079;SDS011;13071;48.868;9.996;2023-11-21T14:16:03;1.40;;;1.02;;
25079;SDS011;13071;48.868;9.996;2023-11-21T14:18:31;1.17;;;0.90;;
25079;SDS011;13071;48.868;9.996;2023-11-21T14:21:03;0.70;;;0.70;;
25079;SDS011;13071;48.868;9.996;2023-11-21T14:23:30;0.82;;;0.82;;
25079;SDS011;13071;48.868;9.996;2023-11-21T14:25:59;0.77;;;0.77;;
25079;SDS011;13071;48.868;9.996;2023-11-21T14:28:28;0.93;;;0.90;;
25079;SDS011;13071;48.868;9.996;2023-11-21T14:30:54;1.30;;;0.80;;
25079;SDS011;13071;48.868;9.996;2023-11-21T14:33:21;0.93;;;0.93;;
25079;SDS011;13071;48.868;9.996;2023-11-21T14:35:48;0.80;;;0.80;;
25079;SDS011;13071;48.868;9.996;2023-11-21T14:38:15;2.55;;;1.58;;
25079;SDS011;13071;48.868;9.996;2023-11-21T14:40:43;1.20;;;1.05;;
25079;SDS011;13071;48.868;9.996;2023-11-21T14:43:10;1.17;;;1.08;;
25079;SDS011;13071;48.868;9.996;2023-11-21T14:45:38;1.20;;;1.10;;
25079;SDS011;13071;48.868;9.996;2023-11-21T14:48:04;1.90;;;1.35;;
25079;SDS011;13071;48.868;9.996;2023-11-21T14:50:34;1.75;;;1.60;;
25079;SDS011;13071;48.868;9.996;2023-11-21T14:53:10;3.63;;;1.83;;
25079;SDS011;13071;48.868;9.996;2023-11-21T14:55:38;4.63;;;1.73;;